Time;durP1;ratioP1;P1;durP2;ratioP2;P2;SDS_P1;SDS_P2;PMS_P1;PMS_P2;Temp;Humidity;BMP_temperature;BMP_pressure;BME280_temperature;BME280_humidity;BME280_pressure;Samples;Min_cycle;Max_cycle;Signal;HPM_P1;HPM_P2
2022/08/20 00:00:48;;;;;;;23.17;16.25;;;;;;;;;;5047544;28;20556;-91
2022/08/20 00:03:41;;;;;;;22.98;15.50;;;;;;;;;;5018424;28;20053;-91
2022/08/20 00:06:42;;;;;;;25.65;17.63;;;;;;;;;;5044435;28;20045;-91
2022/08/20 00:09:10;;;;;;;21.90;14.30;;;;;;;;;;5070030;28;20196;-92
2022/08/20 00:11:38;;;;;;;25.52;16.05;;;;;;;;;;5091710;28;20163;-91
2022/08/20 00:14:06;;;;;;;25.50;16.65;;;;;;;;;;5072720;27;21513;-87
2022/08/20 00:16:36;;;;;;;24.92;16.48;;;;;;;;;;5104371;27;20104;-88
2022/08/20 00:19:07;;;;;;;23.63;16.30;;;;;;;;;;5100774;28;20776;-87
2022/08/20 00:21:35;;;;;;;24.42;15.73;;;;;;;;;;5085215;28;21063;-88
2022/08/20 00:24:28;;;;;;;21.98;15.18;;;;;;;;;;5099199;27;20023;-88
2022/08/20 00:26:56;;;;;;;23.75;15.70;;;;;;;;;;5082189;28;20093;-87
2022/08/20 00:29:24;;;;;;;22.50;14.95;;;;;;;;;;5097643;27;20044;-88
2022/08/20 00:31:56;;;;;;;23.77;14.95;;;;;;;;;;5086025;28;20044;-87
2022/08/20 00:34:24;;;;;;;23.25;15.98;;;;;;;;;;5075415;28;21128;-87
2022/08/20 00:36:56;;;;;;;23.27;15.77;;;;;;;;;;5072718;28;20063;-87
2022/08/20 00:39:24;;;;;;;25.33;14.95;;;;;;;;;;5068337;28;20053;-87
2022/08/20 00:41:52;;;;;;;23.02;15.98;;;;;;;;;;5115149;27;21160;-87
2022/08/20 00:44:21;;;;;;;25.38;15.55;;;;;;;;;;5090183;28;20073;-93
2022/08/20 00:46:50;;;;;;;24.95;15.77;;;;;;;;;;5095941;28;20104;-92
2022/08/20 00:49:23;;;;;;;25.75;15.55;;;;;;;;;;5074515;28;20405;-92
2022/08/20 00:52:06;;;;;;;20.92;15.05;;;;;;;;;;5060463;28;20097;-92
2022/08/20 00:55:00;;;;;;;21.67;14.90;;;;;;;;;;5103672;27;20795;-87
2022/08/20 00:57:33;;;;;;;22.00;15.15;;;;;;;;;;5072430;28;20478;-87
2022/08/20 01:00:48;;;;;;;20.40;14.00;;;;;;;;;;5090092;28;20043;-87
2022/08/20 01:04:10;;;;;;;23.02;14.18;;;;;;;;;;5092543;28;20503;-87
2022/08/20 01:06:40;;;;;;;21.95;14.95;;;;;;;;;;5113615;28;20035;-87
2022/08/20 01:09:08;;;;;;;21.27;13.93;;;;;;;;;;5116386;28;20031;-87
2022/08/20 01:11:37;;;;;;;22.17;14.02;;;;;;;;;;5117331;28;20042;-87
2022/08/20 01:17:31;;;;;;;21.25;12.80;;;;;;;;;;5113091;28;20036;-87
2022/08/20 01:20:07;;;;;;;20.88;13.30;;;;;;;;;;5084691;28;20043;-87
2022/08/20 01:23:27;;;;;;;20.88;12.75;;;;;;;;;;5082679;28;20131;-88
2022/08/20 01:26:21;;;;;;;20.98;12.65;;;;;;;;;;4989848;28;20049;-87
2022/08/20 01:28:52;;;;;;;18.92;12.63;;;;;;;;;;5024832;28;20061;-86
2022/08/20 01:31:46;;;;;;;19.20;12.52;;;;;;;;;;5006258;28;20506;-87
2022/08/20 01:34:46;;;;;;;20.67;13.75;;;;;;;;;;4979150;28;20042;-93
2022/08/20 01:37:14;;;;;;;20.02;12.30;;;;;;;;;;5006687;28;20064;-92
2022/08/20 01:39:42;;;;;;;19.20;12.27;;;;;;;;;;4963021;28;20050;-93
2022/08/20 01:42:18;;;;;;;19.10;12.52;;;;;;;;;;5027534;28;20038;-92
2022/08/20 01:44:46;;;;;;;18.95;11.85;;;;;;;;;;4996006;28;20096;-87
2022/08/20 01:47:25;;;;;;;19.65;12.52;;;;;;;;;;4993914;28;20523;-87
2022/08/20 01:50:13;;;;;;;18.58;11.57;;;;;;;;;;5025634;28;20061;-87
2022/08/20 01:53:12;;;;;;;17.95;11.93;;;;;;;;;;5011785;28;20125;-92
2022/08/20 01:56:14;;;;;;;19.55;11.50;;;;;;;;;;5025032;28;20407;-87
2022/08/20 01:58:48;;;;;;;18.35;12.05;;;;;;;;;;4994305;28;20050;-87
2022/08/20 02:01:35;;;;;;;17.05;11.35;;;;;;;;;;5027852;28;20034;-87
2022/08/20 02:04:19;;;;;;;15.30;10.38;;;;;;;;;;5088868;28;20416;-93
2022/08/20 02:06:54;;;;;;;13.95;9.98;;;;;;;;;;5115883;27;20035;-92
2022/08/20 02:09:28;;;;;;;14.48;9.93;;;;;;;;;;5078184;28;20044;-93
2022/08/20 02:11:57;;;;;;;15.52;10.15;;;;;;;;;;5109603;28;20048;-92
2022/08/20 02:14:28;;;;;;;14.00;9.23;;;;;;;;;;5077659;28;20051;-93
2022/08/20 02:16:57;;;;;;;14.80;9.05;;;;;;;;;;5067743;28;20063;-93
2022/08/20 02:19:41;;;;;;;13.90;8.52;;;;;;;;;;5104220;28;20126;-93
2022/08/20 02:22:46;;;;;;;13.18;8.30;;;;;;;;;;5093646;28;20397;-92
2022/08/20 02:25:18;;;;;;;14.02;9.05;;;;;;;;;;5086307;28;20048;-87
2022/08/20 02:28:15;;;;;;;15.25;8.95;;;;;;;;;;5092803;28;20378;-87
2022/08/20 02:30:52;;;;;;;14.23;8.15;;;;;;;;;;5103778;28;20086;-87
2022/08/20 02:33:21;;;;;;;12.70;8.27;;;;;;;;;;5106993;27;20107;-92
2022/08/20 02:35:55;;;;;;;11.70;8.10;;;;;;;;;;5099134;28;20489;-92
2022/08/20 02:38:23;;;;;;;14.23;8.57;;;;;;;;;;5124075;27;20048;-93
2022/08/20 02:40:50;;;;;;;12.68;8.50;;;;;;;;;;5079860;28;20039;-92
2022/08/20 02:43:18;;;;;;;13.18;8.50;;;;;;;;;;5077490;28;20040;-88
2022/08/20 02:45:46;;;;;;;13.65;8.70;;;;;;;;;;5093082;28;20036;-87
2022/08/20 02:48:19;;;;;;;14.70;9.68;;;;;;;;;;5073701;28;20100;-87
2022/08/20 02:50:49;;;;;;;13.48;8.50;;;;;;;;;;5069474;27;20122;-87
2022/08/20 02:53:16;;;;;;;14.65;8.60;;;;;;;;;;5085564;28;20040;-93
2022/08/20 02:55:49;;;;;;;13.60;7.47;;;;;;;;;;5099613;28;20038;-92
2022/08/20 02:58:18;;;;;;;13.27;8.68;;;;;;;;;;5116357;27;20089;-92
2022/08/20 03:00:47;;;;;;;13.25;8.55;;;;;;;;;;5117560;27;20036;-93
2022/08/20 03:03:19;;;;;;;12.07;8.80;;;;;;;;;;5078181;28;20044;-93
2022/08/20 03:05:56;;;;;;;13.32;8.27;;;;;;;;;;5096335;28;20047;-93
2022/08/20 03:08:28;;;;;;;12.18;7.97;;;;;;;;;;5070872;28;20048;-92
2022/08/20 03:11:01;;;;;;;14.35;8.27;;;;;;;;;;5096435;28;20039;-93
2022/08/20 03:13:28;;;;;;;11.82;7.38;;;;;;;;;;5079033;28;20043;-87
2022/08/20 03:16:26;;;;;;;9.73;7.30;;;;;;;;;;5104929;28;20085;-87
2022/08/20 03:18:54;;;;;;;9.85;6.80;;;;;;;;;;5102096;27;20032;-87
2022/08/20 03:21:22;;;;;;;12.57;7.53;;;;;;;;;;5104166;28;20028;-87
2022/08/20 03:23:50;;;;;;;11.15;7.75;;;;;;;;;;5069622;28;20058;-88
2022/08/20 03:26:22;;;;;;;11.00;7.78;;;;;;;;;;5091258;28;20409;-87
2022/08/20 03:28:50;;;;;;;11.63;7.50;;;;;;;;;;5089624;28;20032;-87
2022/08/20 03:31:19;;;;;;;10.55;7.40;;;;;;;;;;5087807;28;20119;-87
2022/08/20 03:33:46;;;;;;;12.07;7.80;;;;;;;;;;5072092;28;20047;-87
2022/08/20 03:36:38;;;;;;;11.13;7.68;;;;;;;;;;5084385;28;20475;-87
2022/08/20 03:39:30;;;;;;;11.70;7.43;;;;;;;;;;5090328;28;20035;-87
2022/08/20 03:42:08;;;;;;;9.70;6.53;;;;;;;;;;5060252;27;20055;-87
2022/08/20 03:44:36;;;;;;;11.00;7.28;;;;;;;;;;5082502;28;20389;-87
2022/08/20 03:47:08;;;;;;;10.82;7.18;;;;;;;;;;5099834;28;20131;-87
2022/08/20 03:49:40;;;;;;;10.35;7.40;;;;;;;;;;5072488;27;20070;-87
2022/08/20 03:52:14;;;;;;;11.93;7.50;;;;;;;;;;5073114;27;20389;-87
2022/08/20 03:54:44;;;;;;;10.63;6.85;;;;;;;;;;5087016;28;20032;-88
2022/08/20 03:57:45;;;;;;;11.88;7.55;;;;;;;;;;5111415;27;20114;-87
2022/08/20 04:00:14;;;;;;;11.50;7.10;;;;;;;;;;5091413;28;20481;-87
2022/08/20 04:02:42;;;;;;;10.35;7.00;;;;;;;;;;5071284;28;20032;-88
2022/08/20 04:05:16;;;;;;;11.10;7.22;;;;;;;;;;5110137;28;20431;-93
2022/08/20 04:07:44;;;;;;;10.05;7.32;;;;;;;;;;5081847;28;20139;-93
2022/08/20 04:10:12;;;;;;;12.63;7.07;;;;;;;;;;5091248;28;20085;-93
2022/08/20 04:12:40;;;;;;;9.85;6.97;;;;;;;;;;5074737;28;20905;-92
2022/08/20 04:15:22;;;;;;;12.00;6.25;;;;;;;;;;5100722;27;20823;-87
2022/08/20 04:17:52;;;;;;;10.60;7.40;;;;;;;;;;5100244;28;20071;-87
2022/08/20 04:20:46;;;;;;;12.20;7.55;;;;;;;;;;5091853;28;20043;-87
2022/08/20 04:23:39;;;;;;;13.88;7.55;;;;;;;;;;5058049;28;20031;-87
2022/08/20 04:26:31;;;;;;;12.77;7.65;;;;;;;;;;5085514;28;20127;-87
2022/08/20 04:29:04;;;;;;;15.23;8.63;;;;;;;;;;5092168;28;20035;-87
2022/08/20 04:31:33;;;;;;;14.23;8.82;;;;;;;;;;5098011;27;20070;-87
2022/08/20 04:34:01;;;;;;;17.70;9.13;;;;;;;;;;5089231;28;20047;-87
2022/08/20 04:36:29;;;;;;;15.50;9.10;;;;;;;;;;5102342;28;20051;-88
2022/08/20 04:38:56;;;;;;;18.65;9.38;;;;;;;;;;5055785;28;20401;-87
2022/08/20 04:41:28;;;;;;;18.92;9.57;;;;;;;;;;5089650;28;20036;-87
2022/08/20 04:43:57;;;;;;;18.33;9.82;;;;;;;;;;5084429;28;20508;-93
2022/08/20 04:46:27;;;;;;;15.85;9.30;;;;;;;;;;5102052;28;20048;-92
2022/08/20 04:48:55;;;;;;;15.52;8.95;;;;;;;;;;5065220;28;20445;-93
2022/08/20 04:51:29;;;;;;;15.68;8.43;;;;;;;;;;5082025;28;20496;-93
2022/08/20 04:54:03;;;;;;;17.38;9.57;;;;;;;;;;5099611;28;20100;-87
2022/08/20 04:56:37;;;;;;;17.83;9.57;;;;;;;;;;5068739;28;20040;-87
2022/08/20 04:59:06;;;;;;;16.35;9.43;;;;;;;;;;5100801;28;20040;-87
2022/08/20 05:01:34;;;;;;;18.40;11.00;;;;;;;;;;5088141;28;20042;-87
2022/08/20 05:04:02;;;;;;;20.23;10.60;;;;;;;;;;5083073;28;20043;-86
2022/08/20 05:06:31;;;;;;;17.23;9.57;;;;;;;;;;5084748;28;20035;-87
2022/08/20 05:08:59;;;;;;;18.40;10.63;;;;;;;;;;5099547;28;20051;-87
2022/08/20 05:11:27;;;;;;;22.15;10.98;;;;;;;;;;5067236;28;20547;-87
2022/08/20 05:14:05;;;;;;;15.57;9.73;;;;;;;;;;5100830;28;20047;-87
2022/08/20 05:16:39;;;;;;;20.90;9.60;;;;;;;;;;5096049;28;20048;-87
2022/08/20 05:19:34;;;;;;;23.00;10.15;;;;;;;;;;5090400;28;20039;-87
2022/08/20 05:22:27;;;;;;;21.38;11.70;;;;;;;;;;5086202;28;20036;-87
2022/08/20 05:24:58;;;;;;;19.35;10.57;;;;;;;;;;5099605;27;20043;-92
2022/08/20 05:27:27;;;;;;;21.15;10.95;;;;;;;;;;5110262;28;20139;-93
2022/08/20 05:30:06;;;;;;;18.48;10.68;;;;;;;;;;5117706;28;20537;-92
2022/08/20 05:32:37;;;;;;;20.15;10.20;;;;;;;;;;5099055;27;20044;-92
2022/08/20 05:35:11;;;;;;;19.15;10.35;;;;;;;;;;5076567;28;20047;-87
2022/08/20 05:37:42;;;;;;;17.95;10.00;;;;;;;;;;5070239;27;20051;-86
2022/08/20 05:40:15;;;;;;;22.08;10.48;;;;;;;;;;5109775;27;20857;-87
2022/08/20 05:42:42;;;;;;;20.08;10.15;;;;;;;;;;5093239;28;20041;-87
2022/08/20 05:45:10;;;;;;;21.83;10.02;;;;;;;;;;5074229;28;20036;-87
2022/08/20 05:47:39;;;;;;;16.33;9.98;;;;;;;;;;5087744;28;20405;-86
2022/08/20 05:50:16;;;;;;;21.52;11.38;;;;;;;;;;5086454;28;20036;-87
2022/08/20 05:52:51;;;;;;;22.42;11.50;;;;;;;;;;5087375;28;20040;-87
2022/08/20 05:55:18;;;;;;;19.17;10.40;;;;;;;;;;5093100;27;20050;-86
2022/08/20 05:57:46;;;;;;;18.05;10.25;;;;;;;;;;5071977;28;20505;-87
2022/08/20 06:00:14;;;;;;;18.48;10.95;;;;;;;;;;5104505;28;20075;-86
2022/08/20 06:05:34;;;;;;;18.20;10.65;;;;;;;;;;5106398;28;20046;-87
2022/08/20 06:08:07;;;;;;;16.83;10.02;;;;;;;;;;5100988;28;20044;-87
2022/08/20 06:10:40;;;;;;;18.52;10.38;;;;;;;;;;5088275;27;20044;-86
2022/08/20 06:13:10;;;;;;;18.60;10.65;;;;;;;;;;5104815;27;20039;-87
2022/08/20 06:15:41;;;;;;;18.10;10.60;;;;;;;;;;5104552;27;20484;-87
2022/08/20 06:18:15;;;;;;;18.17;10.05;;;;;;;;;;5100699;27;20156;-87
2022/08/20 06:21:06;;;;;;;19.95;10.52;;;;;;;;;;5086936;28;20504;-87
2022/08/20 06:23:38;;;;;;;16.40;9.52;;;;;;;;;;5102051;27;20043;-87
2022/08/20 06:27:00;;;;;;;23.52;10.70;;;;;;;;;;5074123;28;20079;-86
2022/08/20 06:29:34;;;;;;;18.63;9.55;;;;;;;;;;5075685;28;20131;-87
2022/08/20 06:32:02;;;;;;;16.65;9.73;;;;;;;;;;5084735;28;20046;-87
2022/08/20 06:34:30;;;;;;;19.08;9.85;;;;;;;;;;5121261;27;20072;-92
2022/08/20 06:37:03;;;;;;;17.05;10.27;;;;;;;;;;5125699;27;20079;-92
2022/08/20 06:39:31;;;;;;;14.85;9.48;;;;;;;;;;5096873;28;20062;-92
2022/08/20 06:42:01;;;;;;;16.00;9.52;;;;;;;;;;5102816;28;20400;-93
2022/08/20 06:44:31;;;;;;;16.33;9.80;;;;;;;;;;5090502;27;20585;-87
2022/08/20 06:47:02;;;;;;;14.07;8.23;;;;;;;;;;5102535;27;20028;-87
2022/08/20 06:49:33;;;;;;;21.02;9.93;;;;;;;;;;5107632;27;20028;-86
2022/08/20 06:52:03;;;;;;;15.27;9.07;;;;;;;;;;5072974;28;20047;-87
2022/08/20 06:54:31;;;;;;;14.10;9.07;;;;;;;;;;5099454;28;20047;-87
2022/08/20 06:57:04;;;;;;;16.50;9.13;;;;;;;;;;5105316;27;20047;-87
2022/08/20 06:59:36;;;;;;;15.82;9.80;;;;;;;;;;5103121;28;20504;-87
2022/08/20 07:02:04;;;;;;;17.95;9.27;;;;;;;;;;5108596;27;20039;-87
2022/08/20 07:04:32;;;;;;;16.05;9.20;;;;;;;;;;5075202;28;20046;-87
2022/08/20 07:07:00;;;;;;;15.10;8.18;;;;;;;;;;5070566;28;20146;-87
2022/08/20 07:09:33;;;;;;;14.07;8.15;;;;;;;;;;5075970;28;20039;-87
2022/08/20 07:12:03;;;;;;;14.05;7.60;;;;;;;;;;5117836;27;20032;-87
2022/08/20 07:14:36;;;;;;;11.40;7.35;;;;;;;;;;5093569;28;20092;-87
2022/08/20 07:17:05;;;;;;;13.27;7.68;;;;;;;;;;5077154;28;20154;-87
2022/08/20 07:19:38;;;;;;;11.55;7.55;;;;;;;;;;5088127;28;20079;-87
2022/08/20 07:22:07;;;;;;;11.30;7.30;;;;;;;;;;5107622;27;20043;-89
2022/08/20 07:24:34;;;;;;;12.20;7.13;;;;;;;;;;5096654;28;20057;-91
2022/08/20 07:27:06;;;;;;;9.23;6.40;;;;;;;;;;5094867;28;20040;-91
2022/08/20 08:34:38;;;;;;;3.80;2.20;;;;;;;;;;6194605;23;20017;-89
2022/08/20 11:47:38;;;;;;;7.55;1.35;;;;;;;;;;6247014;23;20043;-87
2022/08/20 16:02:04;;;;;;;2.67;0.70;;;;;;;;;;5994951;23;20025;-87
2022/08/20 16:15:04;;;;;;;4.10;0.98;;;;;;;;;;5897176;24;20036;-87
2022/08/20 16:23:21;;;;;;;3.53;1.10;;;;;;;;;;5807537;24;20516;-85
2022/08/20 16:26:50;;;;;;;7.95;2.15;;;;;;;;;;5819309;24;20459;-85
2022/08/20 16:36:31;;;;;;;58.72;3.78;;;;;;;;;;5739513;25;20608;-86
2022/08/20 17:12:46;;;;;;;2.35;0.75;;;;;;;;;;6154944;23;20489;-87
2022/08/20 17:48:39;;;;;;;17.75;2.03;;;;;;;;;;5971127;24;20020;-85
2022/08/20 17:53:14;;;;;;;8.52;1.40;;;;;;;;;;5972406;24;20059;-84
2022/08/20 17:57:46;;;;;;;4.25;1.15;;;;;;;;;;5916528;24;20093;-85
2022/08/20 18:12:01;;;;;;;10.02;1.50;;;;;;;;;;5917076;24;20412;-84
2022/08/20 18:15:33;;;;;;;8.13;1.90;;;;;;;;;;5873982;24;20037;-84
2022/08/20 18:20:10;;;;;;;7.53;2.78;;;;;;;;;;5939527;24;20025;-85
2022/08/20 18:28:58;;;;;;;5.57;2.33;;;;;;;;;;5934033;24;20812;-86
2022/08/20 18:33:29;;;;;;;4.78;1.80;;;;;;;;;;5930772;24;20031;-86
2022/08/20 18:38:11;;;;;;;6.13;1.60;;;;;;;;;;5915717;24;20347;-88
2022/08/20 18:42:19;;;;;;;4.82;1.40;;;;;;;;;;5811825;24;20054;-86
2022/08/20 18:46:22;;;;;;;6.10;1.50;;;;;;;;;;5852075;24;20100;-87
